sensor_id;sensor_type;location;lat;lon;timestamp;temperature;humidity
53498;DHT22;39382;47.168;16.008;2022-07-29T00:01:20;18.20;99.90
53498;DHT22;39382;47.168;16.008;2022-07-29T00:03:46;18.20;99.90
53498;DHT22;39382;47.168;16.008;2022-07-29T00:06:12;18.30;99.90
53498;DHT22;39382;47.168;16.008;2022-07-29T00:08:37;18.20;99.90
53498;DHT22;39382;47.168;16.008;2022-07-29T00:11:03;18.20;99.90
53498;DHT22;39382;47.168;16.008;2022-07-29T00:13:29;18.10;99.90
53498;DHT22;39382;47.168;16.008;2022-07-29T00:15:55;18.10;99.90
53498;DHT22;39382;47.168;16.008;2022-07-29T00:18:20;18.20;99.90
53498;DHT22;39382;47.168;16.008;2022-07-29T00:20:46;18.10;99.90
53498;DHT22;39382;47.168;16.008;2022-07-29T00:23:12;18.20;99.90
53498;DHT22;39382;47.168;16.008;2022-07-29T00:25:37;18.20;99.90
53498;DHT22;39382;47.168;16.008;2022-07-29T00:28:03;18.20;99.90
53498;DHT22;39382;47.168;16.008;2022-07-29T00:30:29;18.10;99.90
53498;DHT22;39382;47.168;16.008;2022-07-29T00:32:54;18.10;99.90
53498;DHT22;39382;47.168;16.008;2022-07-29T00:35:20;18.10;99.90
53498;DHT22;39382;47.168;16.008;2022-07-29T00:38:04;18.00;99.90
53498;DHT22;39382;47.168;16.008;2022-07-29T00:40:30;18.00;99.90
53498;DHT22;39382;47.168;16.008;2022-07-29T00:42:55;18.00;99.90
53498;DHT22;39382;47.168;16.008;2022-07-29T00:45:21;18.00;99.90
53498;DHT22;39382;47.168;16.008;2022-07-29T00:47:50;18.00;99.90
53498;DHT22;39382;47.168;16.008;2022-07-29T00:50:16;18.00;99.90
53498;DHT22;39382;47.168;16.008;2022-07-29T00:52:42;17.90;99.90
53498;DHT22;39382;47.168;16.008;2022-07-29T00:55:10;17.90;99.90
53498;DHT22;39382;47.168;16.008;2022-07-29T00:57:37;17.90;99.90
53498;DHT22;39382;47.168;16.008;2022-07-29T01:00:04;17.90;99.90
53498;DHT22;39382;47.168;16.008;2022-07-29T01:02:30;17.90;99.90
53498;DHT22;39382;47.168;16.008;2022-07-29T01:04:57;17.90;99.90
53498;DHT22;39382;47.168;16.008;2022-07-29T01:07:26;17.90;99.90
53498;DHT22;39382;47.168;16.008;2022-07-29T01:09:53;17.80;99.90
53498;DHT22;39382;47.168;16.008;2022-07-29T01:12:23;17.80;99.90
53498;DHT22;39382;47.168;16.008;2022-07-29T01:14:50;17.90;99.90
53498;DHT22;39382;47.168;16.008;2022-07-29T01:17:26;17.90;99.90
53498;DHT22;39382;47.168;16.008;2022-07-29T01:30:50;17.70;99.90
53498;DHT22;39382;47.168;16.008;2022-07-29T01:33:17;17.70;99.90
53498;DHT22;39382;47.168;16.008;2022-07-29T01:36:13;17.80;99.90
53498;DHT22;39382;47.168;16.008;2022-07-29T01:38:42;17.80;99.90
53498;DHT22;39382;47.168;16.008;2022-07-29T01:41:15;17.80;99.90
53498;DHT22;39382;47.168;16.008;2022-07-29T01:43:51;17.90;99.90
53498;DHT22;39382;47.168;16.008;2022-07-29T01:46:30;17.90;99.90
53498;DHT22;39382;47.168;16.008;2022-07-29T01:49:02;17.90;99.90
53498;DHT22;39382;47.168;16.008;2022-07-29T01:51:54;17.90;99.90
53498;DHT22;39382;47.168;16.008;2022-07-29T01:54:45;18.00;99.90
53498;DHT22;39382;47.168;16.008;2022-07-29T01:57:14;18.00;99.90
53498;DHT22;39382;47.168;16.008;2022-07-29T01:59:43;18.00;99.90
53498;DHT22;39382;47.168;16.008;2022-07-29T02:02:11;18.00;99.90
53498;DHT22;39382;47.168;16.008;2022-07-29T02:04:40;18.00;99.90
53498;DHT22;39382;47.168;16.008;2022-07-29T02:07:11;18.00;99.90
53498;DHT22;39382;47.168;16.008;2022-07-29T02:09:39;18.00;99.90
53498;DHT22;39382;47.168;16.008;2022-07-29T02:12:07;18.00;99.90
53498;DHT22;39382;47.168;16.008;2022-07-29T02:14:43;18.00;99.90
53498;DHT22;39382;47.168;16.008;2022-07-29T02:17:11;18.00;99.90
53498;DHT22;39382;47.168;16.008;2022-07-29T02:19:38;18.00;99.90
53498;DHT22;39382;47.168;16.008;2022-07-29T02:22:04;18.00;99.90
53498;DHT22;39382;47.168;16.008;2022-07-29T02:24:31;18.00;99.90
53498;DHT22;39382;47.168;16.008;2022-07-29T02:26:59;18.00;99.90
53498;DHT22;39382;47.168;16.008;2022-07-29T02:29:26;18.00;99.90
53498;DHT22;39382;47.168;16.008;2022-07-29T02:31:54;18.00;99.90
53498;DHT22;39382;47.168;16.008;2022-07-29T02:34:21;18.00;99.90
53498;DHT22;39382;47.168;16.008;2022-07-29T02:36:48;17.90;99.90
53498;DHT22;39382;47.168;16.008;2022-07-29T02:39:15;18.00;99.90
53498;DHT22;39382;47.168;16.008;2022-07-29T02:44:15;18.00;99.90
53498;DHT22;39382;47.168;16.008;2022-07-29T02:49:43;17.90;99.90
53498;DHT22;39382;47.168;16.008;2022-07-29T02:52:26;17.90;99.90
53498;DHT22;39382;47.168;16.008;2022-07-29T02:55:00;17.80;99.90
53498;DHT22;39382;47.168;16.008;2022-07-29T02:57:32;17.90;99.90
53498;DHT22;39382;47.168;16.008;2022-07-29T03:00:05;17.90;99.90
53498;DHT22;39382;47.168;16.008;2022-07-29T03:02:35;18.00;99.90
53498;DHT22;39382;47.168;16.008;2022-07-29T03:05:03;18.00;99.90
53498;DHT22;39382;47.168;16.008;2022-07-29T03:07:31;18.00;99.90
53498;DHT22;39382;47.168;16.008;2022-07-29T03:09:57;17.90;99.90
53498;DHT22;39382;47.168;16.008;2022-07-29T03:12:23;17.90;99.90
53498;DHT22;39382;47.168;16.008;2022-07-29T03:14:50;17.90;99.90
53498;DHT22;39382;47.168;16.008;2022-07-29T03:17:16;17.90;99.90
53498;DHT22;39382;47.168;16.008;2022-07-29T03:19:42;17.90;99.90
53498;DHT22;39382;47.168;16.008;2022-07-29T03:22:08;18.00;99.90
53498;DHT22;39382;47.168;16.008;2022-07-29T03:24:36;18.00;99.90
53498;DHT22;39382;47.168;16.008;2022-07-29T03:27:02;18.00;99.90
53498;DHT22;39382;47.168;16.008;2022-07-29T03:29:29;18.00;99.90
53498;DHT22;39382;47.168;16.008;2022-07-29T03:31:55;18.10;99.90
53498;DHT22;39382;47.168;16.008;2022-07-29T03:34:21;18.10;99.90
53498;DHT22;39382;47.168;16.008;2022-07-29T03:36:47;18.10;99.90
53498;DHT22;39382;47.168;16.008;2022-07-29T03:39:17;18.60;99.90
53498;DHT22;39382;47.168;16.008;2022-07-29T03:41:45;19.10;99.90
53498;DHT22;39382;47.168;16.008;2022-07-29T03:44:13;19.40;99.90
53498;DHT22;39382;47.168;16.008;2022-07-29T03:46:42;19.50;99.90
53498;DHT22;39382;47.168;16.008;2022-07-29T03:49:08;19.40;99.90
53498;DHT22;39382;47.168;16.008;2022-07-29T03:51:35;19.40;99.90
53498;DHT22;39382;47.168;16.008;2022-07-29T03:54:03;19.50;99.90
53498;DHT22;39382;47.168;16.008;2022-07-29T03:56:29;19.70;99.90
53498;DHT22;39382;47.168;16.008;2022-07-29T03:58:57;19.60;99.90
53498;DHT22;39382;47.168;16.008;2022-07-29T04:01:24;19.80;99.90
53498;DHT22;39382;47.168;16.008;2022-07-29T04:03:51;19.80;99.90
53498;DHT22;39382;47.168;16.008;2022-07-29T04:06:16;19.70;99.90
53498;DHT22;39382;47.168;16.008;2022-07-29T04:08:42;19.70;99.90
53498;DHT22;39382;47.168;16.008;2022-07-29T04:11:08;19.80;99.90
53498;DHT22;39382;47.168;16.008;2022-07-29T04:13:33;19.80;99.90
53498;DHT22;39382;47.168;16.008;2022-07-29T04:15:59;19.70;99.90
53498;DHT22;39382;47.168;16.008;2022-07-29T04:18:25;19.80;99.90
53498;DHT22;39382;47.168;16.008;2022-07-29T04:20:51;19.80;99.90
53498;DHT22;39382;47.168;16.008;2022-07-29T04:23:16;20.00;99.90
53498;DHT22;39382;47.168;16.008;2022-07-29T04:25:42;20.10;99.90
53498;DHT22;39382;47.168;16.008;2022-07-29T04:28:09;20.10;99.90
53498;DHT22;39382;47.168;16.008;2022-07-29T04:30:37;20.20;99.90
53498;DHT22;39382;47.168;16.008;2022-07-29T04:33:04;20.30;99.90
53498;DHT22;39382;47.168;16.008;2022-07-29T04:35:30;20.10;99.90
53498;DHT22;39382;47.168;16.008;2022-07-29T04:37:58;20.10;99.90
53498;DHT22;39382;47.168;16.008;2022-07-29T04:40:24;19.90;99.90
53498;DHT22;39382;47.168;16.008;2022-07-29T04:42:52;19.80;99.90
53498;DHT22;39382;47.168;16.008;2022-07-29T04:45:18;19.70;99.90
53498;DHT22;39382;47.168;16.008;2022-07-29T04:47:43;19.80;99.90
53498;DHT22;39382;47.168;16.008;2022-07-29T04:50:09;19.90;99.90
53498;DHT22;39382;47.168;16.008;2022-07-29T04:52:35;19.90;99.90
53498;DHT22;39382;47.168;16.008;2022-07-29T04:55:02;20.00;99.90
53498;DHT22;39382;47.168;16.008;2022-07-29T04:57:28;20.00;99.90
53498;DHT22;39382;47.168;16.008;2022-07-29T04:59:54;19.80;99.90
53498;DHT22;39382;47.168;16.008;2022-07-29T05:02:19;19.70;99.90
53498;DHT22;39382;47.168;16.008;2022-07-29T05:04:45;19.50;99.90
53498;DHT22;39382;47.168;16.008;2022-07-29T05:07:11;19.30;99.90
53498;DHT22;39382;47.168;16.008;2022-07-29T05:09:36;19.20;99.90
53498;DHT22;39382;47.168;16.008;2022-07-29T05:12:02;19.20;99.90
53498;DHT22;39382;47.168;16.008;2022-07-29T05:14:28;19.20;99.90
53498;DHT22;39382;47.168;16.008;2022-07-29T05:16:53;19.30;99.90
53498;DHT22;39382;47.168;16.008;2022-07-29T05:19:22;19.40;99.90
53498;DHT22;39382;47.168;16.008;2022-07-29T05:21:48;19.80;99.90
53498;DHT22;39382;47.168;16.008;2022-07-29T05:24:13;20.00;99.90
53498;DHT22;39382;47.168;16.008;2022-07-29T05:26:39;20.00;99.90
53498;DHT22;39382;47.168;16.008;2022-07-29T05:29:05;20.00;99.90
53498;DHT22;39382;47.168;16.008;2022-07-29T05:31:31;19.80;99.90
53498;DHT22;39382;47.168;16.008;2022-07-29T05:33:57;19.80;99.90
53498;DHT22;39382;47.168;16.008;2022-07-29T05:36:22;19.80;99.90
53498;DHT22;39382;47.168;16.008;2022-07-29T05:38:48;20.00;99.90
53498;DHT22;39382;47.168;16.008;2022-07-29T05:41:14;20.10;99.90
53498;DHT22;39382;47.168;16.008;2022-07-29T05:43:39;20.30;99.90
53498;DHT22;39382;47.168;16.008;2022-07-29T05:46:05;20.30;99.90
53498;DHT22;39382;47.168;16.008;2022-07-29T05:48:31;20.40;99.90
53498;DHT22;39382;47.168;16.008;2022-07-29T05:50:57;20.50;99.90
53498;DHT22;39382;47.168;16.008;2022-07-29T05:53:23;20.60;99.90
53498;DHT22;39382;47.168;16.008;2022-07-29T05:55:49;20.60;99.90
53498;DHT22;39382;47.168;16.008;2022-07-29T05:58:15;20.50;99.90
53498;DHT22;39382;47.168;16.008;2022-07-29T06:00:40;20.60;99.90
53498;DHT22;39382;47.168;16.008;2022-07-29T06:03:06;20.70;99.90
53498;DHT22;39382;47.168;16.008;2022-07-29T06:05:32;20.80;99.90
53498;DHT22;39382;47.168;16.008;2022-07-29T06:07:57;20.90;99.90
53498;DHT22;39382;47.168;16.008;2022-07-29T06:10:23;21.00;99.90
53498;DHT22;39382;47.168;16.008;2022-07-29T06:12:49;21.00;99.90
53498;DHT22;39382;47.168;16.008;2022-07-29T06:15:15;21.20;99.90
53498;DHT22;39382;47.168;16.008;2022-07-29T06:17:41;21.50;99.90
53498;DHT22;39382;47.168;16.008;2022-07-29T06:20:07;21.80;99.90
53498;DHT22;39382;47.168;16.008;2022-07-29T06:22:32;22.10;99.90
53498;DHT22;39382;47.168;16.008;2022-07-29T06:24:58;22.20;99.90
53498;DHT22;39382;47.168;16.008;2022-07-29T06:29:50;22.60;99.90
53498;DHT22;39382;47.168;16.008;2022-07-29T06:32:15;22.80;99.90
53498;DHT22;39382;47.168;16.008;2022-07-29T06:34:41;22.90;99.90
53498;DHT22;39382;47.168;16.008;2022-07-29T06:37:07;23.00;99.90
53498;DHT22;39382;47.168;16.008;2022-07-29T06:39:36;23.00;99.90
53498;DHT22;39382;47.168;16.008;2022-07-29T06:42:03;23.10;99.90
53498;DHT22;39382;47.168;16.008;2022-07-29T06:44:29;23.10;99.90
53498;DHT22;39382;47.168;16.008;2022-07-29T06:46:55;23.20;99.90
53498;DHT22;39382;47.168;16.008;2022-07-29T06:49:21;23.20;99.90
53498;DHT22;39382;47.168;16.008;2022-07-29T06:51:48;23.30;99.90
53498;DHT22;39382;47.168;16.008;2022-07-29T06:54:14;23.50;99.90
53498;DHT22;39382;47.168;16.008;2022-07-29T06:56:40;23.70;99.90
53498;DHT22;39382;47.168;16.008;2022-07-29T06:59:09;23.90;99.90
53498;DHT22;39382;47.168;16.008;2022-07-29T07:01:40;24.10;99.90
53498;DHT22;39382;47.168;16.008;2022-07-29T07:04:06;24.40;99.90
53498;DHT22;39382;47.168;16.008;2022-07-29T07:06:34;24.60;99.50
53498;DHT22;39382;47.168;16.008;2022-07-29T07:09:00;24.80;98.20
53498;DHT22;39382;47.168;16.008;2022-07-29T07:11:25;25.00;98.40
53498;DHT22;39382;47.168;16.008;2022-07-29T07:13:51;25.20;99.00
53498;DHT22;39382;47.168;16.008;2022-07-29T07:16:16;25.30;98.30
53498;DHT22;39382;47.168;16.008;2022-07-29T07:18:42;25.50;96.70
53498;DHT22;39382;47.168;16.008;2022-07-29T07:21:10;25.60;96.00
53498;DHT22;39382;47.168;16.008;2022-07-29T07:23:36;25.80;95.60
53498;DHT22;39382;47.168;16.008;2022-07-29T07:26:02;25.90;95.10
53498;DHT22;39382;47.168;16.008;2022-07-29T07:28:28;25.90;93.40
53498;DHT22;39382;47.168;16.008;2022-07-29T07:30:54;26.10;92.40
53498;DHT22;39382;47.168;16.008;2022-07-29T07:33:19;26.20;92.70
53498;DHT22;39382;47.168;16.008;2022-07-29T07:35:45;26.00;97.90
53498;DHT22;39382;47.168;16.008;2022-07-29T07:38:11;26.50;99.60
53498;DHT22;39382;47.168;16.008;2022-07-29T07:40:37;26.50;96.60
53498;DHT22;39382;47.168;16.008;2022-07-29T07:43:03;26.50;92.50
53498;DHT22;39382;47.168;16.008;2022-07-29T07:45:28;26.60;94.90
53498;DHT22;39382;47.168;16.008;2022-07-29T07:47:54;26.80;99.90
53498;DHT22;39382;47.168;16.008;2022-07-29T07:50:20;27.20;95.80
53498;DHT22;39382;47.168;16.008;2022-07-29T07:55:13;27.00;88.90
53498;DHT22;39382;47.168;16.008;2022-07-29T07:57:38;27.20;89.00
53498;DHT22;39382;47.168;16.008;2022-07-29T08:00:04;27.30;88.40
53498;DHT22;39382;47.168;16.008;2022-07-29T08:02:31;27.30;87.70
53498;DHT22;39382;47.168;16.008;2022-07-29T08:04:57;27.40;88.80
53498;DHT22;39382;47.168;16.008;2022-07-29T08:07:24;27.50;87.80
53498;DHT22;39382;47.168;16.008;2022-07-29T08:09:50;27.60;87.70
53498;DHT22;39382;47.168;16.008;2022-07-29T08:12:16;27.80;87.80
53498;DHT22;39382;47.168;16.008;2022-07-29T08:14:41;27.90;85.70
53498;DHT22;39382;47.168;16.008;2022-07-29T08:17:07;28.00;84.00
53498;DHT22;39382;47.168;16.008;2022-07-29T08:19:32;28.00;80.00
53498;DHT22;39382;47.168;16.008;2022-07-29T08:21:58;28.00;79.60
53498;DHT22;39382;47.168;16.008;2022-07-29T08:24:24;28.00;79.80
53498;DHT22;39382;47.168;16.008;2022-07-29T08:27:11;28.00;80.60
53498;DHT22;39382;47.168;16.008;2022-07-29T08:29:37;28.00;79.20
53498;DHT22;39382;47.168;16.008;2022-07-29T08:32:03;28.00;78.50
53498;DHT22;39382;47.168;16.008;2022-07-29T08:34:29;28.10;79.20
53498;DHT22;39382;47.168;16.008;2022-07-29T08:36:55;28.10;78.00
53498;DHT22;39382;47.168;16.008;2022-07-29T08:39:22;28.20;77.30
53498;DHT22;39382;47.168;16.008;2022-07-29T08:44:16;28.50;75.40
53498;DHT22;39382;47.168;16.008;2022-07-29T08:46:42;28.50;75.10
53498;DHT22;39382;47.168;16.008;2022-07-29T08:49:08;28.60;75.50
53498;DHT22;39382;47.168;16.008;2022-07-29T08:51:34;28.70;75.70
53498;DHT22;39382;47.168;16.008;2022-07-29T08:54:01;28.80;75.50
53498;DHT22;39382;47.168;16.008;2022-07-29T08:56:27;28.90;75.20
53498;DHT22;39382;47.168;16.008;2022-07-29T08:58:54;29.00;73.60
53498;DHT22;39382;47.168;16.008;2022-07-29T09:01:25;29.00;74.90
53498;DHT22;39382;47.168;16.008;2022-07-29T09:03:55;29.10;74.90
53498;DHT22;39382;47.168;16.008;2022-07-29T09:06:22;29.10;74.20
53498;DHT22;39382;47.168;16.008;2022-07-29T09:08:49;29.20;72.10
53498;DHT22;39382;47.168;16.008;2022-07-29T09:11:15;29.20;70.60
53498;DHT22;39382;47.168;16.008;2022-07-29T09:13:41;29.10;70.30
53498;DHT22;39382;47.168;16.008;2022-07-29T09:16:06;29.10;68.40
53498;DHT22;39382;47.168;16.008;2022-07-29T09:18:43;29.20;69.20
53498;DHT22;39382;47.168;16.008;2022-07-29T09:21:11;29.30;69.60
53498;DHT22;39382;47.168;16.008;2022-07-29T09:24:14;29.30;67.50
53498;DHT22;39382;47.168;16.008;2022-07-29T09:26:45;29.40;68.70
53498;DHT22;39382;47.168;16.008;2022-07-29T09:29:17;29.40;68.00
53498;DHT22;39382;47.168;16.008;2022-07-29T09:31:48;29.40;67.50
53498;DHT22;39382;47.168;16.008;2022-07-29T09:34:20;29.50;67.50
53498;DHT22;39382;47.168;16.008;2022-07-29T09:36:48;29.50;66.20
53498;DHT22;39382;47.168;16.008;2022-07-29T09:39:15;29.70;65.10
53498;DHT22;39382;47.168;16.008;2022-07-29T09:41:53;29.80;65.30
53498;DHT22;39382;47.168;16.008;2022-07-29T09:44:20;29.90;63.60
53498;DHT22;39382;47.168;16.008;2022-07-29T09:47:12;30.00;63.30
53498;DHT22;39382;47.168;16.008;2022-07-29T09:49:58;30.10;62.70
53498;DHT22;39382;47.168;16.008;2022-07-29T09:52:25;30.20;63.50
53498;DHT22;39382;47.168;16.008;2022-07-29T09:54:51;30.20;63.70
53498;DHT22;39382;47.168;16.008;2022-07-29T09:57:26;30.30;65.20
53498;DHT22;39382;47.168;16.008;2022-07-29T10:00:00;30.30;64.40
53498;DHT22;39382;47.168;16.008;2022-07-29T10:02:31;30.40;64.90
53498;DHT22;39382;47.168;16.008;2022-07-29T10:04:58;30.40;64.60
53498;DHT22;39382;47.168;16.008;2022-07-29T10:07:24;30.50;66.10
53498;DHT22;39382;47.168;16.008;2022-07-29T10:09:53;30.60;63.60
53498;DHT22;39382;47.168;16.008;2022-07-29T10:12:20;30.70;61.50
53498;DHT22;39382;47.168;16.008;2022-07-29T10:14:46;30.60;62.30
53498;DHT22;39382;47.168;16.008;2022-07-29T10:17:12;30.40;62.30
53498;DHT22;39382;47.168;16.008;2022-07-29T10:19:39;30.30;62.20
53498;DHT22;39382;47.168;16.008;2022-07-29T10:22:07;30.10;63.20
53498;DHT22;39382;47.168;16.008;2022-07-29T10:24:34;30.10;63.90
53498;DHT22;39382;47.168;16.008;2022-07-29T10:27:02;30.00;64.30
53498;DHT22;39382;47.168;16.008;2022-07-29T10:29:29;29.90;64.50
53498;DHT22;39382;47.168;16.008;2022-07-29T10:40:26;29.90;66.30
53498;DHT22;39382;47.168;16.008;2022-07-29T10:43:21;29.90;67.60
53498;DHT22;39382;47.168;16.008;2022-07-29T10:45:49;29.90;66.70
53498;DHT22;39382;47.168;16.008;2022-07-29T10:48:15;29.90;67.30
53498;DHT22;39382;47.168;16.008;2022-07-29T10:53:23;29.90;65.60
53498;DHT22;39382;47.168;16.008;2022-07-29T10:55:49;29.80;65.10
53498;DHT22;39382;47.168;16.008;2022-07-29T10:58:16;29.80;64.80
53498;DHT22;39382;47.168;16.008;2022-07-29T11:00:43;29.80;65.10
53498;DHT22;39382;47.168;16.008;2022-07-29T11:03:09;29.80;65.90
53498;DHT22;39382;47.168;16.008;2022-07-29T11:05:54;29.90;63.20
53498;DHT22;39382;47.168;16.008;2022-07-29T11:08:21;29.90;62.60
53498;DHT22;39382;47.168;16.008;2022-07-29T11:10:50;30.00;62.40
53498;DHT22;39382;47.168;16.008;2022-07-29T11:16:07;30.40;62.30
53498;DHT22;39382;47.168;16.008;2022-07-29T11:18:32;30.50;61.40
53498;DHT22;39382;47.168;16.008;2022-07-29T11:20:58;30.70;61.30
53498;DHT22;39382;47.168;16.008;2022-07-29T11:23:30;31.00;60.70
53498;DHT22;39382;47.168;16.008;2022-07-29T11:29:15;31.20;58.00
53498;DHT22;39382;47.168;16.008;2022-07-29T11:34:35;31.10;58.70
53498;DHT22;39382;47.168;16.008;2022-07-29T11:39:41;30.80;59.50
53498;DHT22;39382;47.168;16.008;2022-07-29T11:44:58;30.60;60.10
53498;DHT22;39382;47.168;16.008;2022-07-29T11:47:31;30.60;57.90
53498;DHT22;39382;47.168;16.008;2022-07-29T11:49:58;30.60;58.90
53498;DHT22;39382;47.168;16.008;2022-07-29T11:55:04;30.60;61.20
53498;DHT22;39382;47.168;16.008;2022-07-29T11:57:31;30.60;61.90
53498;DHT22;39382;47.168;16.008;2022-07-29T11:59:57;30.70;61.30
53498;DHT22;39382;47.168;16.008;2022-07-29T12:02:23;30.90;60.60
53498;DHT22;39382;47.168;16.008;2022-07-29T12:04:51;31.00;60.10
53498;DHT22;39382;47.168;16.008;2022-07-29T12:07:16;31.00;59.50
53498;DHT22;39382;47.168;16.008;2022-07-29T12:09:52;31.10;58.40
53498;DHT22;39382;47.168;16.008;2022-07-29T12:12:19;31.20;57.30
53498;DHT22;39382;47.168;16.008;2022-07-29T12:14:44;31.10;56.60
53498;DHT22;39382;47.168;16.008;2022-07-29T12:17:34;31.10;56.70
53498;DHT22;39382;47.168;16.008;2022-07-29T12:20:03;31.10;56.10
53498;DHT22;39382;47.168;16.008;2022-07-29T12:22:35;31.10;56.90
53498;DHT22;39382;47.168;16.008;2022-07-29T12:25:07;31.10;56.40
53498;DHT22;39382;47.168;16.008;2022-07-29T12:27:35;31.00;57.70
53498;DHT22;39382;47.168;16.008;2022-07-29T12:30:04;31.00;56.50
53498;DHT22;39382;47.168;16.008;2022-07-29T12:32:34;31.00;57.10
53498;DHT22;39382;47.168;16.008;2022-07-29T12:35:05;30.80;58.20
53498;DHT22;39382;47.168;16.008;2022-07-29T12:37:36;30.80;57.10
53498;DHT22;39382;47.168;16.008;2022-07-29T12:40:06;30.70;56.70
53498;DHT22;39382;47.168;16.008;2022-07-29T12:42:33;30.70;58.60
53498;DHT22;39382;47.168;16.008;2022-07-29T12:44:59;30.70;58.60
53498;DHT22;39382;47.168;16.008;2022-07-29T12:47:24;30.70;58.00
53498;DHT22;39382;47.168;16.008;2022-07-29T12:49:51;30.70;57.30
53498;DHT22;39382;47.168;16.008;2022-07-29T12:52:33;30.70;57.70
53498;DHT22;39382;47.168;16.008;2022-07-29T12:54:59;30.70;59.20
53498;DHT22;39382;47.168;16.008;2022-07-29T12:57:26;30.70;59.10
53498;DHT22;39382;47.168;16.008;2022-07-29T13:00:08;30.70;59.60
53498;DHT22;39382;47.168;16.008;2022-07-29T13:02:36;30.50;60.30
53498;DHT22;39382;47.168;16.008;2022-07-29T13:05:02;30.50;73.30
53498;DHT22;39382;47.168;16.008;2022-07-29T13:07:31;30.50;67.60
53498;DHT22;39382;47.168;16.008;2022-07-29T13:10:11;30.40;58.60
53498;DHT22;39382;47.168;16.008;2022-07-29T13:12:38;30.30;59.10
53498;DHT22;39382;47.168;16.008;2022-07-29T13:15:16;30.30;59.00
53498;DHT22;39382;47.168;16.008;2022-07-29T13:17:42;30.20;59.00
53498;DHT22;39382;47.168;16.008;2022-07-29T13:20:12;30.10;57.80
53498;DHT22;39382;47.168;16.008;2022-07-29T13:22:39;29.90;58.50
53498;DHT22;39382;47.168;16.008;2022-07-29T13:25:06;29.90;60.70
53498;DHT22;39382;47.168;16.008;2022-07-29T13:27:33;29.80;59.10
53498;DHT22;39382;47.168;16.008;2022-07-29T13:30:00;29.80;60.00
53498;DHT22;39382;47.168;16.008;2022-07-29T13:32:27;29.70;61.10
53498;DHT22;39382;47.168;16.008;2022-07-29T13:34:58;29.70;61.60
53498;DHT22;39382;47.168;16.008;2022-07-29T13:37:24;29.70;60.80
53498;DHT22;39382;47.168;16.008;2022-07-29T13:39:51;29.60;60.70
53498;DHT22;39382;47.168;16.008;2022-07-29T13:42:17;29.60;62.10
53498;DHT22;39382;47.168;16.008;2022-07-29T13:44:43;29.50;61.20
53498;DHT22;39382;47.168;16.008;2022-07-29T13:47:09;29.50;62.00
53498;DHT22;39382;47.168;16.008;2022-07-29T13:49:34;29.40;60.90
53498;DHT22;39382;47.168;16.008;2022-07-29T13:52:01;29.30;61.50
53498;DHT22;39382;47.168;16.008;2022-07-29T13:54:26;29.40;62.50
53498;DHT22;39382;47.168;16.008;2022-07-29T13:56:52;29.40;61.90
53498;DHT22;39382;47.168;16.008;2022-07-29T13:59:18;29.40;62.10
53498;DHT22;39382;47.168;16.008;2022-07-29T14:01:44;29.50;63.00
53498;DHT22;39382;47.168;16.008;2022-07-29T14:04:10;29.60;62.40
53498;DHT22;39382;47.168;16.008;2022-07-29T14:06:36;29.70;62.60
53498;DHT22;39382;47.168;16.008;2022-07-29T14:09:02;29.80;61.60
53498;DHT22;39382;47.168;16.008;2022-07-29T14:11:31;29.90;60.70
53498;DHT22;39382;47.168;16.008;2022-07-29T14:13:57;29.90;59.90
53498;DHT22;39382;47.168;16.008;2022-07-29T14:16:22;30.00;60.10
53498;DHT22;39382;47.168;16.008;2022-07-29T14:18:48;29.90;60.00
53498;DHT22;39382;47.168;16.008;2022-07-29T14:21:14;29.80;60.00
53498;DHT22;39382;47.168;16.008;2022-07-29T14:23:39;29.80;61.70
53498;DHT22;39382;47.168;16.008;2022-07-29T14:26:06;29.70;61.70
53498;DHT22;39382;47.168;16.008;2022-07-29T14:28:31;29.80;60.80
53498;DHT22;39382;47.168;16.008;2022-07-29T14:30:57;29.80;62.50
53498;DHT22;39382;47.168;16.008;2022-07-29T14:33:23;29.80;62.30
53498;DHT22;39382;47.168;16.008;2022-07-29T14:35:48;29.70;61.80
53498;DHT22;39382;47.168;16.008;2022-07-29T14:38:14;29.60;62.00
53498;DHT22;39382;47.168;16.008;2022-07-29T14:40:40;29.50;61.60
53498;DHT22;39382;47.168;16.008;2022-07-29T14:43:05;29.40;61.70
53498;DHT22;39382;47.168;16.008;2022-07-29T14:45:31;29.40;62.20
53498;DHT22;39382;47.168;16.008;2022-07-29T14:47:57;29.30;62.40
53498;DHT22;39382;47.168;16.008;2022-07-29T14:50:22;29.20;63.60
53498;DHT22;39382;47.168;16.008;2022-07-29T14:52:48;29.10;65.70
53498;DHT22;39382;47.168;16.008;2022-07-29T14:55:15;29.00;64.40
53498;DHT22;39382;47.168;16.008;2022-07-29T14:57:40;28.90;63.30
53498;DHT22;39382;47.168;16.008;2022-07-29T15:00:07;28.70;64.80
53498;DHT22;39382;47.168;16.008;2022-07-29T15:02:33;28.70;64.80
53498;DHT22;39382;47.168;16.008;2022-07-29T15:04:59;28.70;66.40
53498;DHT22;39382;47.168;16.008;2022-07-29T15:07:24;28.60;67.30
53498;DHT22;39382;47.168;16.008;2022-07-29T15:09:50;28.60;70.50
53498;DHT22;39382;47.168;16.008;2022-07-29T15:12:16;28.60;69.80
53498;DHT22;39382;47.168;16.008;2022-07-29T15:14:42;28.60;72.10
53498;DHT22;39382;47.168;16.008;2022-07-29T15:17:07;28.50;75.40
53498;DHT22;39382;47.168;16.008;2022-07-29T15:19:33;28.50;74.70
53498;DHT22;39382;47.168;16.008;2022-07-29T15:21:59;28.50;74.10
53498;DHT22;39382;47.168;16.008;2022-07-29T15:24:25;28.50;74.00
53498;DHT22;39382;47.168;16.008;2022-07-29T15:26:51;28.50;73.00
53498;DHT22;39382;47.168;16.008;2022-07-29T15:29:17;28.60;71.70
53498;DHT22;39382;47.168;16.008;2022-07-29T15:31:43;28.60;72.40
53498;DHT22;39382;47.168;16.008;2022-07-29T15:34:09;28.50;71.90
53498;DHT22;39382;47.168;16.008;2022-07-29T15:36:34;28.50;71.90
53498;DHT22;39382;47.168;16.008;2022-07-29T15:39:00;28.50;72.10
53498;DHT22;39382;47.168;16.008;2022-07-29T15:41:26;28.40;72.30
53498;DHT22;39382;47.168;16.008;2022-07-29T15:43:52;28.40;72.60
53498;DHT22;39382;47.168;16.008;2022-07-29T15:46:19;28.30;72.90
53498;DHT22;39382;47.168;16.008;2022-07-29T15:49:05;28.40;73.00
53498;DHT22;39382;47.168;16.008;2022-07-29T15:51:31;28.40;72.80
53498;DHT22;39382;47.168;16.008;2022-07-29T15:53:57;28.50;72.30
53498;DHT22;39382;47.168;16.008;2022-07-29T15:56:23;28.40;72.10
53498;DHT22;39382;47.168;16.008;2022-07-29T15:58:49;28.40;72.10
53498;DHT22;39382;47.168;16.008;2022-07-29T16:01:16;28.40;73.10
53498;DHT22;39382;47.168;16.008;2022-07-29T16:03:41;28.40;72.60
53498;DHT22;39382;47.168;16.008;2022-07-29T16:06:07;28.40;73.20
53498;DHT22;39382;47.168;16.008;2022-07-29T16:08:33;28.40;73.70
53498;DHT22;39382;47.168;16.008;2022-07-29T16:10:59;28.40;74.90